createdAt,value
2018-06-02T00:00:01.491Z,99.90
2018-06-02T00:02:29.852Z,99.90
2018-06-02T00:04:59.295Z,99.90
2018-06-02T00:07:27.687Z,99.90
2018-06-02T00:09:56.178Z,99.90
2018-06-02T00:12:24.590Z,99.90
2018-06-02T00:14:53.826Z,99.90
2018-06-02T00:17:22.206Z,99.90
2018-06-02T00:19:51.991Z,99.90
2018-06-02T00:22:21.135Z,99.90
2018-06-02T00:24:49.515Z,99.90
2018-06-02T00:27:17.924Z,99.90
2018-06-02T00:29:46.291Z,99.90
2018-06-02T00:32:14.696Z,99.90
2018-06-02T00:34:43.156Z,99.90
2018-06-02T00:37:12.379Z,99.90
2018-06-02T00:39:40.786Z,99.90
2018-06-02T00:42:09.392Z,99.90
2018-06-02T00:44:37.899Z,99.90
2018-06-02T00:47:06.305Z,99.90
2018-06-02T00:49:34.734Z,99.90
2018-06-02T00:52:03.198Z,99.90
2018-06-02T00:54:43.622Z,99.90
2018-06-02T00:57:12.166Z,99.90
2018-06-02T00:59:40.712Z,99.90
2018-06-02T01:02:09.409Z,99.90
2018-06-02T01:04:38.663Z,99.90
2018-06-02T01:07:07.226Z,99.90
2018-06-02T01:09:36.250Z,99.90
2018-06-02T01:12:05.639Z,99.90
2018-06-02T01:14:34.903Z,99.90
2018-06-02T01:17:04.235Z,99.90
2018-06-02T01:19:32.778Z,99.90
2018-06-02T01:22:02.095Z,99.90
2018-06-02T01:24:31.444Z,99.90
2018-06-02T01:26:59.816Z,99.90
2018-06-02T01:29:29.132Z,99.90
2018-06-02T01:31:58.220Z,99.90
2018-06-02T01:34:27.511Z,99.90
2018-06-02T01:36:56.204Z,99.90
2018-06-02T01:39:24.604Z,99.90
2018-06-02T01:41:53.148Z,99.90
2018-06-02T01:44:22.507Z,99.90
2018-06-02T01:46:50.892Z,99.90
2018-06-02T01:49:19.296Z,99.90
2018-06-02T01:51:47.734Z,99.90
2018-06-02T01:54:16.131Z,99.90
2018-06-02T01:56:44.596Z,99.90
2018-06-02T01:59:13.876Z,99.90
2018-06-02T02:01:42.311Z,99.90
2018-06-02T02:04:10.759Z,99.90
2018-06-02T02:06:41.304Z,99.90
2018-06-02T02:09:09.728Z,99.90
2018-06-02T02:11:38.979Z,99.90
2018-06-02T02:14:07.350Z,99.90
2018-06-02T02:16:36.590Z,99.90
2018-06-02T02:19:05.027Z,99.90
2018-06-02T02:21:34.393Z,99.90
2018-06-02T02:24:02.815Z,99.90
2018-06-02T02:26:31.386Z,99.90
2018-06-02T02:28:59.757Z,99.90
2018-06-02T02:31:28.143Z,99.90
2018-06-02T02:33:57.111Z,99.90
2018-06-02T02:36:25.570Z,99.90
2018-06-02T02:38:55.032Z,99.90
2018-06-02T02:41:23.394Z,99.90
2018-06-02T02:43:52.088Z,99.90
2018-06-02T02:46:20.649Z,99.90
2018-06-02T02:48:49.959Z,99.90
2018-06-02T02:51:19.994Z,99.90
2018-06-02T02:53:49.196Z,99.90
2018-06-02T02:56:19.028Z,99.90
2018-06-02T02:58:47.406Z,99.90
2018-06-02T03:01:16.591Z,99.90
2018-06-02T03:03:45.795Z,99.90
2018-06-02T03:06:14.202Z,99.90
2018-06-02T03:08:42.679Z,99.90
2018-06-02T03:11:11.863Z,99.90
2018-06-02T03:13:41.189Z,99.90
2018-06-02T03:16:09.642Z,99.90
2018-06-02T03:18:39.876Z,99.90
2018-06-02T03:21:08.250Z,99.90
2018-06-02T03:23:37.603Z,99.90
2018-06-02T03:26:06.875Z,99.90
2018-06-02T03:28:35.299Z,99.90
2018-06-02T03:31:03.672Z,99.90
2018-06-02T03:33:32.214Z,99.90
2018-06-02T03:36:01.565Z,99.90
2018-06-02T03:38:30.723Z,99.90
2018-06-02T03:41:00.055Z,99.90
2018-06-02T03:43:28.744Z,99.90
2018-06-02T03:45:57.259Z,99.90
2018-06-02T03:48:25.658Z,99.90
2018-06-02T03:50:54.134Z,99.90
2018-06-02T03:53:22.678Z,99.90
2018-06-02T03:55:51.247Z,99.90
2018-06-02T03:58:19.835Z,99.90
2018-06-02T04:00:49.023Z,99.90
2018-06-02T04:03:17.562Z,99.90
2018-06-02T04:05:45.991Z,99.90
2018-06-02T04:08:15.127Z,99.90
2018-06-02T04:10:43.491Z,99.90
2018-06-02T04:13:11.904Z,99.90
2018-06-02T04:15:40.334Z,99.90
2018-06-02T04:18:11.259Z,99.90
2018-06-02T04:20:40.111Z,99.90
2018-06-02T04:23:10.471Z,99.90
2018-06-02T04:25:38.887Z,99.90
2018-06-02T04:28:07.304Z,99.90
2018-06-02T04:30:35.683Z,99.90
2018-06-02T04:33:04.991Z,99.90
2018-06-02T04:35:33.575Z,99.90
2018-06-02T04:38:01.971Z,99.90
2018-06-02T04:40:30.364Z,99.90
2018-06-02T04:42:59.004Z,99.90
2018-06-02T04:45:27.563Z,99.90
2018-06-02T04:47:56.123Z,99.90
2018-06-02T04:50:24.520Z,99.90
2018-06-02T04:52:52.998Z,99.90
2018-06-02T04:55:21.411Z,99.90
2018-06-02T04:57:49.763Z,99.90
2018-06-02T05:00:20.902Z,99.90
2018-06-02T05:02:49.291Z,99.90
2018-06-02T05:05:17.659Z,99.90
2018-06-02T05:07:46.079Z,99.90
2018-06-02T05:10:14.483Z,99.90
2018-06-02T05:12:42.910Z,99.90
2018-06-02T05:15:11.379Z,99.90
2018-06-02T05:17:39.887Z,99.90
2018-06-02T05:20:10.195Z,99.90
2018-06-02T05:22:39.012Z,99.90
2018-06-02T05:25:08.339Z,99.90
2018-06-02T05:27:36.903Z,99.90
2018-06-02T05:30:06.263Z,99.90
2018-06-02T05:32:34.671Z,99.90
2018-06-02T05:35:03.108Z,99.90
2018-06-02T05:37:31.609Z,99.90
2018-06-02T05:40:00.003Z,99.90
2018-06-02T05:42:29.171Z,99.90
2018-06-02T05:44:57.575Z,99.90
2018-06-02T05:47:26.173Z,99.90
2018-06-02T05:49:57.610Z,99.90
2018-06-02T05:52:26.822Z,99.90
2018-06-02T05:54:55.223Z,99.90
2018-06-02T05:57:24.382Z,99.90
2018-06-02T05:59:52.835Z,99.90
2018-06-02T06:02:21.310Z,99.90
2018-06-02T06:04:49.899Z,99.90
2018-06-02T06:07:18.299Z,99.90
2018-06-02T06:09:46.737Z,99.90
2018-06-02T06:12:15.282Z,99.90
2018-06-02T06:14:44.590Z,99.90
2018-06-02T06:17:13.070Z,99.90
2018-06-02T06:19:41.567Z,99.90
2018-06-02T06:22:10.511Z,99.90
2018-06-02T06:24:39.143Z,99.90
2018-06-02T06:27:07.563Z,99.90
2018-06-02T06:29:35.939Z,99.90
2018-06-02T06:32:04.375Z,99.90
2018-06-02T06:34:33.272Z,99.90
2018-06-02T06:37:01.671Z,99.90
2018-06-02T06:39:30.163Z,99.90
2018-06-02T06:41:58.548Z,99.90
2018-06-02T06:44:27.076Z,99.90
2018-06-02T06:46:55.406Z,99.90
2018-06-02T06:49:23.838Z,99.90
2018-06-02T06:51:52.250Z,99.90
2018-06-02T06:54:21.398Z,99.90
2018-06-02T06:56:49.779Z,99.90
2018-06-02T06:59:18.353Z,99.90
2018-06-02T07:01:46.928Z,99.90
2018-06-02T07:04:16.126Z,99.90
2018-06-02T07:06:44.564Z,99.90
2018-06-02T07:09:13.767Z,99.90
2018-06-02T07:11:42.146Z,99.90
2018-06-02T07:14:11.341Z,99.90
2018-06-02T07:16:39.914Z,99.90
2018-06-02T07:19:08.315Z,96.40
2018-06-02T07:21:36.723Z,93.20
2018-06-02T07:24:05.159Z,91.40
2018-06-02T07:26:33.622Z,82.40
2018-06-02T07:29:02.191Z,77.00
2018-06-02T07:31:31.360Z,60.00
2018-06-02T07:33:59.739Z,59.90
2018-06-02T07:36:28.135Z,56.20
2018-06-02T07:38:56.615Z,50.10
2018-06-02T07:41:25.192Z,55.30
2018-06-02T07:43:53.618Z,52.90
2018-06-02T07:46:22.803Z,58.20
2018-06-02T07:48:51.204Z,58.20
2018-06-02T07:51:20.359Z,57.20
2018-06-02T07:53:48.736Z,57.20
2018-06-02T07:56:17.163Z,57.00
2018-06-02T07:58:46.336Z,58.70
2018-06-02T08:01:14.752Z,58.60
2018-06-02T08:03:43.122Z,61.30
2018-06-02T08:06:11.572Z,61.40
2018-06-02T08:08:42.147Z,52.40
2018-06-02T08:11:10.511Z,57.20
2018-06-02T08:13:39.052Z,59.00
2018-06-02T08:16:07.508Z,58.70
2018-06-02T08:18:36.067Z,56.20
2018-06-02T08:21:04.434Z,69.80
2018-06-02T08:23:33.147Z,79.50
2018-06-02T08:26:01.568Z,76.60
2018-06-02T08:28:29.974Z,83.10
2018-06-02T08:30:58.514Z,80.40
2018-06-02T08:33:27.037Z,90.90
2018-06-02T08:35:55.612Z,90.10
2018-06-02T08:38:24.195Z,70.30
2018-06-02T08:40:53.371Z,66.80
2018-06-02T08:43:21.923Z,66.80
2018-06-02T08:45:50.496Z,63.80
2018-06-02T08:48:19.035Z,53.90
2018-06-02T08:50:47.418Z,60.90
2018-06-02T08:53:16.015Z,56.60
2018-06-02T08:55:44.566Z,57.00
2018-06-02T08:58:12.948Z,45.90
2018-06-02T09:00:41.506Z,49.60
2018-06-02T09:03:11.946Z,53.50
2018-06-02T09:05:40.371Z,53.30
2018-06-02T09:08:08.930Z,54.10
2018-06-02T09:10:37.334Z,58.40
2018-06-02T09:13:06.663Z,49.10
2018-06-02T09:15:35.269Z,49.00
2018-06-02T09:18:03.779Z,47.70
2018-06-02T09:20:32.312Z,52.00
2018-06-02T09:23:00.755Z,48.20
2018-06-02T09:25:29.299Z,45.10
2018-06-02T09:27:57.877Z,46.60
2018-06-02T09:30:26.355Z,47.20
2018-06-02T09:32:54.754Z,42.30
2018-06-02T09:35:23.316Z,40.60
2018-06-02T09:37:52.655Z,46.10
2018-06-02T09:40:21.206Z,46.10
2018-06-02T09:42:51.958Z,45.50
2018-06-02T09:45:20.510Z,44.70
2018-06-02T09:47:48.909Z,51.20
2018-06-02T09:50:17.435Z,53.20
2018-06-02T09:52:45.822Z,49.10
2018-06-02T09:55:14.372Z,48.90
2018-06-02T09:57:42.792Z,46.60
2018-06-02T10:00:11.206Z,47.80
2018-06-02T10:02:39.643Z,50.80
2018-06-02T10:05:08.053Z,47.50
2018-06-02T10:07:36.423Z,54.20
2018-06-02T10:10:04.987Z,51.30
2018-06-02T10:12:33.395Z,49.30
2018-06-02T10:15:01.854Z,49.30
2018-06-02T10:17:32.414Z,46.00
2018-06-02T10:20:00.921Z,46.00
2018-06-02T10:22:30.091Z,45.60
2018-06-02T10:24:58.587Z,47.70
2018-06-02T10:27:27.035Z,49.10
2018-06-02T10:29:55.487Z,51.20
2018-06-02T10:32:25.588Z,50.70
2018-06-02T10:34:54.474Z,55.20
2018-06-02T10:37:22.884Z,45.70
2018-06-02T10:39:51.335Z,45.00
2018-06-02T10:42:19.719Z,54.10
2018-06-02T10:44:48.124Z,55.00
2018-06-02T10:47:16.519Z,49.80
2018-06-02T10:49:45.011Z,54.70
2018-06-02T10:52:13.399Z,59.00
2018-06-02T10:54:41.946Z,59.20
2018-06-02T10:57:10.430Z,57.30
2018-06-02T10:59:39.756Z,55.00
2018-06-02T11:02:09.899Z,59.30
2018-06-02T11:04:38.314Z,59.20
2018-06-02T11:07:06.750Z,57.80
2018-06-02T11:09:35.315Z,55.20
2018-06-02T11:12:03.726Z,57.40
2018-06-02T11:14:32.251Z,57.30
2018-06-02T11:17:00.620Z,53.00
2018-06-02T11:19:29.268Z,56.50
2018-06-02T11:21:57.670Z,50.40
2018-06-02T11:24:28.944Z,42.10
2018-06-02T11:26:58.117Z,51.20
2018-06-02T11:29:26.711Z,51.20
2018-06-02T11:31:57.103Z,48.80
2018-06-02T11:34:25.527Z,52.10
2018-06-02T11:36:53.986Z,58.50
2018-06-02T11:39:22.415Z,59.60
2018-06-02T11:41:51.022Z,56.50
2018-06-02T11:44:19.510Z,52.80
2018-06-02T11:46:47.922Z,51.10
2018-06-02T11:49:16.402Z,45.80
2018-06-02T11:51:44.848Z,42.90
2018-06-02T11:54:13.271Z,60.20
2018-06-02T11:56:41.687Z,44.00
2018-06-02T11:59:10.603Z,50.60
2018-06-02T12:01:39.779Z,44.00
2018-06-02T12:04:09.165Z,43.90
2018-06-02T12:06:38.495Z,48.10
2018-06-02T12:09:09.187Z,40.40
2018-06-02T12:11:37.662Z,40.40
2018-06-02T12:14:06.072Z,41.10
2018-06-02T12:16:34.502Z,36.40
2018-06-02T12:19:02.947Z,40.90
2018-06-02T12:21:32.171Z,41.60
2018-06-02T12:24:00.696Z,41.60
2018-06-02T12:26:30.103Z,34.50
2018-06-02T12:28:59.300Z,30.00
2018-06-02T12:31:28.362Z,29.90
2018-06-02T12:33:57.564Z,38.80
2018-06-02T12:36:26.131Z,38.70
2018-06-02T12:38:54.622Z,33.20
2018-06-02T12:41:23.069Z,33.70
2018-06-02T12:43:51.506Z,35.10
2018-06-02T12:46:19.935Z,31.30
2018-06-02T12:48:49.167Z,34.70
2018-06-02T12:51:17.718Z,32.00
2018-06-02T12:53:46.199Z,28.80
2018-06-02T12:56:14.795Z,27.30
2018-06-02T12:58:43.355Z,27.10
2018-06-02T13:01:11.919Z,38.10
2018-06-02T13:03:41.246Z,36.20
2018-06-02T13:06:10.729Z,36.20
2018-06-02T13:08:39.331Z,32.50
2018-06-02T13:11:08.659Z,31.50
2018-06-02T13:13:37.163Z,31.50
2018-06-02T13:16:05.734Z,32.20
2018-06-02T13:18:34.333Z,33.50
2018-06-02T13:21:02.887Z,37.40
2018-06-02T13:23:31.402Z,36.00
2018-06-02T13:25:59.965Z,35.10
2018-06-02T13:28:29.818Z,33.60
2018-06-02T13:30:58.389Z,33.70
2018-06-02T13:33:26.975Z,31.90
2018-06-02T13:35:55.555Z,34.30
2018-06-02T13:38:24.052Z,32.40
2018-06-02T13:40:52.531Z,32.40
2018-06-02T13:43:21.084Z,35.10
2018-06-02T13:45:50.409Z,33.90
2018-06-02T13:48:18.892Z,33.80
2018-06-02T13:50:48.295Z,32.00
2018-06-02T13:53:16.760Z,36.00
2018-06-02T13:55:46.035Z,25.20
2018-06-02T13:58:14.535Z,25.20
2018-06-02T14:00:43.084Z,28.50
2018-06-02T14:03:11.494Z,27.40
2018-06-02T14:05:40.088Z,27.90
2018-06-02T14:08:09.355Z,33.10
2018-06-02T14:10:37.922Z,33.10
2018-06-02T14:13:06.333Z,29.80
2018-06-02T14:15:34.894Z,29.40
2018-06-02T14:18:03.335Z,28.90
2018-06-02T14:20:31.805Z,30.70
2018-06-02T14:23:00.251Z,29.80
2018-06-02T14:25:29.545Z,29.00
2018-06-02T14:27:57.945Z,28.90
2018-06-02T14:30:28.130Z,31.50
2018-06-02T14:32:57.279Z,28.20
2018-06-02T14:35:26.435Z,27.50
2018-06-02T14:37:55.870Z,27.60
2018-06-02T14:40:25.652Z,30.60
2018-06-02T14:42:54.475Z,30.60
2018-06-02T14:45:22.973Z,29.30
2018-06-02T14:47:51.404Z,27.80
2018-06-02T14:50:19.959Z,27.90
2018-06-02T14:52:49.272Z,28.90
2018-06-02T14:55:17.903Z,31.00
2018-06-02T14:57:46.351Z,30.20
2018-06-02T15:00:14.797Z,31.00
2018-06-02T15:02:44.129Z,27.60
2018-06-02T15:05:12.624Z,27.40
2018-06-02T15:07:41.211Z,29.40
2018-06-02T15:10:09.596Z,28.50
2018-06-02T15:12:38.024Z,28.50
2018-06-02T15:15:06.460Z,30.60
2018-06-02T15:17:34.917Z,30.50
2018-06-02T15:20:03.283Z,29.70
2018-06-02T15:22:32.416Z,27.00
2018-06-02T15:25:01.035Z,27.00
2018-06-02T15:27:29.424Z,30.90
2018-06-02T15:29:57.790Z,30.40
2018-06-02T15:32:27.119Z,28.00
2018-06-02T15:34:55.528Z,32.30
2018-06-02T15:37:23.991Z,35.00
2018-06-02T15:39:52.535Z,31.90
2018-06-02T15:42:20.946Z,31.30
2018-06-02T15:44:49.468Z,31.20
2018-06-02T15:47:18.037Z,33.00
2018-06-02T15:49:46.887Z,35.70
2018-06-02T15:52:15.298Z,35.80
2018-06-02T15:54:44.472Z,35.10
2018-06-02T15:57:12.847Z,34.90
2018-06-02T15:59:41.238Z,34.70
2018-06-02T16:02:11.364Z,34.70
2018-06-02T16:04:39.809Z,34.70
2018-06-02T16:07:08.244Z,33.20
2018-06-02T16:09:36.681Z,33.80
2018-06-02T16:12:06.188Z,35.00
2018-06-02T16:14:34.610Z,32.40
2018-06-02T16:17:03.013Z,33.20
2018-06-02T16:19:31.470Z,31.80
2018-06-02T16:21:59.975Z,33.20
2018-06-02T16:24:28.311Z,33.80
2018-06-02T16:26:57.454Z,32.80
2018-06-02T16:29:25.931Z,32.80
2018-06-02T16:31:54.351Z,32.50
2018-06-02T16:34:22.874Z,31.60
2018-06-02T16:36:52.688Z,33.90
2018-06-02T16:39:21.273Z,33.00
2018-06-02T16:41:49.707Z,31.90
2018-06-02T16:44:18.103Z,32.50
2018-06-02T16:46:47.302Z,35.90
2018-06-02T16:49:16.615Z,32.10
2018-06-02T16:51:46.350Z,32.10
2018-06-02T16:54:14.810Z,32.20
2018-06-02T16:56:43.998Z,35.90
2018-06-02T16:59:12.446Z,35.90
2018-06-02T17:01:40.991Z,33.60
2018-06-02T17:04:09.439Z,33.50
2018-06-02T17:06:38.758Z,34.30
2018-06-02T17:09:07.131Z,34.30
2018-06-02T17:11:35.562Z,36.70
2018-06-02T17:14:04.006Z,36.80
2018-06-02T17:16:32.575Z,35.70
2018-06-02T17:19:01.144Z,36.60
2018-06-02T17:21:30.291Z,37.70
2018-06-02T17:23:58.873Z,37.50
2018-06-02T17:26:27.319Z,36.20
2018-06-02T17:28:55.870Z,37.50
2018-06-02T17:31:26.744Z,37.80
2018-06-02T17:33:55.251Z,37.80
2018-06-02T17:36:23.804Z,38.70
2018-06-02T17:38:52.239Z,39.00
2018-06-02T17:41:21.558Z,40.10
2018-06-02T17:43:50.134Z,40.10
2018-06-02T17:46:18.530Z,41.40
2018-06-02T17:48:47.103Z,41.80
2018-06-02T17:51:15.515Z,42.20
2018-06-02T17:53:44.988Z,40.30
2018-06-02T17:56:13.554Z,41.60
2018-06-02T17:58:42.703Z,44.90
2018-06-02T18:01:11.630Z,44.90
2018-06-02T18:03:40.923Z,50.90
2018-06-02T18:06:11.231Z,50.80
2018-06-02T18:08:39.757Z,56.70
2018-06-02T18:11:08.774Z,54.10
2018-06-02T18:13:37.183Z,54.00
2018-06-02T18:16:06.976Z,54.60
2018-06-02T18:18:35.528Z,58.30
2018-06-02T18:21:03.894Z,64.90
2018-06-02T18:23:32.304Z,72.60
2018-06-02T18:26:00.870Z,76.70
2018-06-02T18:28:29.262Z,83.60
2018-06-02T18:31:01.991Z,90.60
2018-06-02T18:36:34.751Z,90.70
2018-06-02T18:39:04.651Z,93.90
2018-06-02T18:41:33.947Z,93.50
2018-06-02T18:44:03.397Z,94.80
2018-06-02T18:46:32.771Z,94.10
2018-06-02T18:49:02.119Z,94.60
2018-06-02T18:51:31.734Z,95.40
2018-06-02T18:54:01.087Z,96.40
2018-06-02T18:56:30.409Z,96.70
2018-06-02T18:58:59.732Z,97.50
2018-06-02T19:01:29.179Z,98.70
2018-06-02T19:03:58.519Z,98.70
2018-06-02T19:06:27.998Z,99.70
2018-06-02T19:08:57.295Z,99.90
2018-06-02T19:11:26.654Z,99.90
2018-06-02T19:13:56.085Z,99.90
2018-06-02T19:16:25.484Z,99.90
2018-06-02T19:18:54.819Z,99.90
2018-06-02T19:21:24.111Z,99.90
2018-06-02T19:23:53.599Z,99.90
2018-06-02T19:26:23.079Z,99.90
2018-06-02T19:28:52.407Z,99.90
2018-06-02T19:31:21.868Z,99.90
2018-06-02T19:33:51.224Z,99.90
2018-06-02T19:36:20.958Z,99.90
2018-06-02T19:38:50.288Z,99.90
2018-06-02T19:41:19.674Z,99.90
2018-06-02T19:43:49.094Z,99.90
2018-06-02T19:46:18.551Z,99.90
2018-06-02T19:48:47.992Z,99.90
2018-06-02T19:51:17.366Z,99.90
2018-06-02T19:53:46.852Z,99.90
2018-06-02T19:56:16.367Z,99.90
2018-06-02T19:58:45.861Z,99.90
2018-06-02T20:01:15.259Z,99.90
2018-06-02T20:03:44.634Z,99.90
2018-06-02T20:06:14.099Z,99.90
2018-06-02T20:08:43.476Z,99.90
2018-06-02T20:11:12.811Z,99.90
2018-06-02T20:13:42.199Z,99.90
2018-06-02T20:16:12.443Z,99.90
2018-06-02T20:18:41.786Z,99.90
2018-06-02T20:21:11.083Z,99.90
2018-06-02T20:23:40.671Z,99.90
2018-06-02T20:26:10.146Z,99.90
2018-06-02T20:28:40.657Z,99.90
2018-06-02T20:31:10.115Z,99.90
2018-06-02T20:33:39.570Z,99.90
2018-06-02T20:36:09.167Z,99.90
2018-06-02T20:38:38.591Z,99.90
2018-06-02T20:41:07.912Z,99.90
2018-06-02T20:43:37.265Z,99.90
2018-06-02T20:46:06.715Z,99.90
2018-06-02T20:48:36.031Z,99.90
2018-06-02T20:51:05.502Z,99.90
2018-06-02T20:53:36.095Z,99.90
2018-06-02T20:56:05.451Z,99.90
2018-06-02T20:58:34.974Z,99.90
2018-06-02T21:01:04.427Z,99.90
2018-06-02T21:03:33.755Z,99.90
2018-06-02T21:06:03.195Z,99.90
2018-06-02T21:08:32.551Z,99.90
2018-06-02T21:11:02.073Z,99.90
2018-06-02T21:13:31.397Z,99.90
2018-06-02T21:16:00.901Z,99.90
2018-06-02T21:18:30.210Z,99.90
2018-06-02T21:21:01.071Z,99.90
2018-06-02T21:23:30.458Z,99.90
2018-06-02T21:25:59.838Z,99.90
2018-06-02T21:28:29.159Z,99.90
2018-06-02T21:30:58.670Z,99.90
2018-06-02T21:33:28.735Z,99.90
2018-06-02T21:35:57.440Z,99.90
2018-06-02T21:38:26.775Z,99.90
2018-06-02T21:40:56.275Z,99.90
2018-06-02T21:43:25.586Z,99.90
2018-06-02T21:45:54.963Z,99.90
2018-06-02T21:48:24.269Z,99.90
2018-06-02T21:50:53.739Z,99.90
2018-06-02T21:53:23.102Z,99.90
2018-06-02T21:55:53.003Z,99.90
2018-06-02T21:58:22.331Z,99.90
2018-06-02T22:00:51.725Z,99.90
2018-06-02T22:03:21.208Z,99.90
2018-06-02T22:05:51.878Z,99.90
2018-06-02T22:08:21.305Z,99.90
2018-06-02T22:10:50.843Z,99.90
2018-06-02T22:13:20.203Z,99.90
2018-06-02T22:15:49.606Z,99.90
2018-06-02T22:18:18.927Z,99.90
2018-06-02T22:20:48.364Z,99.90
2018-06-02T22:23:17.687Z,99.90
2018-06-02T22:25:47.035Z,99.90
2018-06-02T22:28:16.342Z,99.90
2018-06-02T22:30:45.943Z,99.90
2018-06-02T22:33:15.283Z,99.90
2018-06-02T22:35:44.631Z,99.90
2018-06-02T22:38:14.003Z,99.90
2018-06-02T22:40:43.345Z,99.90
2018-06-02T22:43:12.655Z,99.90
2018-06-02T22:45:42.157Z,99.90
2018-06-02T22:51:25.083Z,99.90
2018-06-02T22:56:23.631Z,99.90
2018-06-02T22:58:53.202Z,99.90
2018-06-02T23:01:22.770Z,99.90
2018-06-02T23:03:52.158Z,99.90
2018-06-02T23:06:21.778Z,99.90
2018-06-02T23:08:51.205Z,99.90
2018-06-02T23:11:20.563Z,99.90
2018-06-02T23:13:49.950Z,99.90
2018-06-02T23:16:19.418Z,99.90
2018-06-02T23:18:48.987Z,99.90
2018-06-02T23:21:18.441Z,99.90
2018-06-02T23:23:47.783Z,99.90
2018-06-02T23:26:17.276Z,99.90
2018-06-02T23:28:46.770Z,99.90
2018-06-02T23:31:16.235Z,99.90
2018-06-02T23:33:45.540Z,99.90
2018-06-02T23:36:15.007Z,99.90
2018-06-02T23:38:44.460Z,99.90
2018-06-02T23:41:15.023Z,99.90
2018-06-02T23:43:44.365Z,99.90
2018-06-02T23:46:13.866Z,99.90
2018-06-02T23:48:43.181Z,99.90
2018-06-02T23:51:12.918Z,99.90
2018-06-02T23:53:42.314Z,99.90
2018-06-02T23:56:12.791Z,99.90
2018-06-02T23:58:42.078Z,99.90
